Judi M. — WCX8376 — position and weather

sailwx.info

Track history (hours):
 
Tides and Currents Weather Stations Pressure Air Temp Water Temp Dewpoint Dewpoint Depression Visibility Wind Speed Wind Dir Waves Ship Positions

Judi M.

Owner: MANKE TUG & BARGE CO INC, SHELTON, WA. More information available from US FCC via Universal Licensing System and Coast Guard Vessel Documentation Center.

Last reported at 2015-Feb-01 19:33 UTC. Time now 2015-Feb-01 19:43 UTC.
Position N 47°34' W 122°22'.

Length 29 m; draft 4 m.

Type: Tow > 200 m length. MMSI: 366740920.

Date/timePositionNaut miles runAvg speedWind from/ knotsBaromVisibWave heightAir tempDewpointWater temp
2015-Feb-01 19:33N 47°34' W 122°22'0 0.0
2015-Feb-01 19:33N 47°34' W 122°22'0 0.0
2015-Feb-01 18:33N 47°34' W 122°22'0 0.0
2015-Feb-01 18:33N 47°34' W 122°22'0 0.0
2015-Feb-01 17:33N 47°34' W 122°22'0 0.0
2015-Feb-01 17:33N 47°34' W 122°22'0 0.0
2015-Feb-01 16:33N 47°34' W 122°22'0 0.0
2015-Feb-01 16:32N 47°34' W 122°22'0 0.0
2015-Feb-01 14:59N 47°34' W 122°22'0 0.0
2015-Feb-01 14:27N 47°34' W 122°22'0 0.0
2015-Feb-01 13:57N 47°34' W 122°22'0 0.0
2015-Feb-01 13:26N 47°34' W 122°22'0 0.0
2015-Feb-01 13:16N 47°34' W 122°22'0 0.0
2015-Feb-01 12:31N 47°34' W 122°22'0 0.0
2015-Feb-01 12:20N 47°34' W 122°22'0 0.0
2015-Feb-01 11:33N 47°34' W 122°22'0 0.0
2015-Feb-01 11:30N 47°34' W 122°22'0 0.0
2015-Feb-01 10:33N 47°34' W 122°22'0 0.0
2015-Feb-01 10:30N 47°34' W 122°22'0 0.0
2015-Feb-01 09:33N 47°34' W 122°22'0 0.0
2015-Feb-01 09:30N 47°34' W 122°22'0 0.0
2015-Feb-01 08:33N 47°34' W 122°22'0 0.0
2015-Feb-01 08:30N 47°34' W 122°22'0 0.0
2015-Feb-01 07:33N 47°34' W 122°22'0 0.0
2015-Feb-01 07:30N 47°34' W 122°22'0 0.0
2015-Feb-01 07:04N 47°34' W 122°22'0 0.0
2015-Feb-01 06:33N 47°34' W 122°22'0 0.0
2015-Feb-01 05:33N 47°34' W 122°22'0 0.0
2015-Feb-01 05:29N 47°34' W 122°22'0 0.0
2015-Feb-01 04:33N 47°34' W 122°22'0 0.0
2015-Feb-01 04:29N 47°34' W 122°22'0 0.0
2015-Feb-01 03:33N 47°34' W 122°22'0 0.0
2015-Feb-01 03:29N 47°34' W 122°22'0 0.0
2015-Feb-01 02:33N 47°34' W 122°22'0 0.0
2015-Feb-01 02:28N 47°34' W 122°22'0 0.0
2015-Feb-01 01:33N 47°34' W 122°22'0 0.0
2015-Feb-01 01:29N 47°34' W 122°22'0 0.0
2015-Feb-01 00:33N 47°34' W 122°22'0 0.0
2015-Feb-01 00:28N 47°34' W 122°22'0 0.0
2015-Jan-31 23:33N 47°34' W 122°22'0 0.0
2015-Jan-31 23:29N 47°34' W 122°22'0 0.0
2015-Jan-31 22:33N 47°34' W 122°22'0 0.0
2015-Jan-31 22:28N 47°34' W 122°22'0 0.0
2015-Jan-31 21:34N 47°34' W 122°22'0 0.0
2015-Jan-31 21:33N 47°34' W 122°22'0 0.0
2015-Jan-31 20:33N 47°34' W 122°22'0 0.0
2015-Jan-31 20:33N 47°34' W 122°22'0 0.0
2015-Jan-31 19:33N 47°34' W 122°22'0 0.0
2015-Jan-31 18:33N 47°34' W 122°22'0 0.0
2015-Jan-31 18:33N 47°34' W 122°22'0 0.0
2015-Jan-31 17:33N 47°34' W 122°22'0 0.0
2015-Jan-31 17:33N 47°34' W 122°22'0 0.0
2015-Jan-31 16:33N 47°34' W 122°22'0 0.0
2015-Jan-31 16:33N 47°34' W 122°22'0 0.0
2015-Jan-31 15:33N 47°34' W 122°22'0 0.0
2015-Jan-31 15:33N 47°34' W 122°22'0 0.0
2015-Jan-31 14:09N 47°34' W 122°22'0 0.0
2015-Jan-31 14:06N 47°34' W 122°22'0 0.0
2015-Jan-31 13:33N 47°34' W 122°22'0 0.0
2015-Jan-31 13:31N 47°34' W 122°22'0 0.0
2015-Jan-31 12:33N 47°34' W 122°22'0 0.0
2015-Jan-31 12:31N 47°34' W 122°22'0 0.0
2015-Jan-31 11:33N 47°34' W 122°22'0 0.0
2015-Jan-31 11:31N 47°34' W 122°22'0 0.0
2015-Jan-31 10:33N 47°34' W 122°22'0 0.0
2015-Jan-31 10:25N 47°34' W 122°22'0 0.0
2015-Jan-31 09:33N 47°34' W 122°22'0 0.0
2015-Jan-31 09:30N 47°34' W 122°22'0 0.0
2015-Jan-31 08:33N 47°34' W 122°22'0 0.0
2015-Jan-31 08:30N 47°34' W 122°22'1 0.8
2015-Jan-31 07:33N 47°35' W 122°22'0 3.8
2015-Jan-31 07:29N 47°35' W 122°22'4 4.7
2015-Jan-31 06:33N 47°38' W 122°27'3 6.9
2015-Jan-31 06:08N 47°41' W 122°28'4 7.2
2015-Jan-31 05:33N 47°45' W 122°27'0 6.2
2015-Jan-31 05:33N 47°45' W 122°27'7 7.2
2015-Jan-31 04:33N 47°52' W 122°29'0 6.2
2015-Jan-31 04:32N 47°52' W 122°29'6 5.9
2015-Jan-31 03:33N 47°57' W 122°34'5 5.0
2015-Jan-31 02:33N 48°01' W 122°38'4 4.0
2015-Jan-31 01:32N 48°05' W 122°40'5 0.5
2015-Jan-30 15:22N 48°06' W 122°48'0 0.0
2015-Jan-30 14:33N 48°06' W 122°48'2 0.9
2015-Jan-30 12:20N 48°06' W 122°45'5 6.1
2015-Jan-30 11:33N 48°04' W 122°38'8 8.3
2015-Jan-30 10:33N 47°57' W 122°32'1 8.2
2015-Jan-30 10:23N 47°56' W 122°30'7 8.0
2015-Jan-30 09:34N 47°50' W 122°27'010.1
2015-Jan-30 09:33N 47°50' W 122°27'8 7.5
2015-Jan-30 08:34N 47°42' W 122°26'014.4
2015-Jan-30 08:33N 47°42' W 122°26'7 6.6
2015-Jan-30 07:33N 47°36' W 122°22'0 0.0
2015-Jan-30 07:33N 47°36' W 122°22'2 4.0
2015-Jan-30 07:03N 47°34' W 122°22'0 0.0
2015-Jan-30 06:33N 47°34' W 122°22'0 0.0
2015-Jan-30 05:33N 47°34' W 122°22'0 0.0
2015-Jan-30 05:33N 47°34' W 122°22'0 0.0
2015-Jan-30 04:33N 47°34' W 122°22'0 0.0
2015-Jan-30 04:33N 47°34' W 122°22'0 0.0
2015-Jan-30 03:33N 47°34' W 122°22'0 0.0
2015-Jan-30 03:33N 47°34' W 122°22'0 0.0
2015-Jan-30 02:09N 47°34' W 122°22'0 0.0
2015-Jan-30 02:07N 47°34' W 122°22'0 0.0
2015-Jan-30 01:27N 47°34' W 122°22'0 0.0
2015-Jan-30 01:26N 47°34' W 122°22'0 0.0
2015-Jan-30 00:33N 47°34' W 122°22'0 0.0
2015-Jan-30 00:30N 47°34' W 122°22'0 0.0
2015-Jan-29 23:33N 47°34' W 122°22'0 0.0
2015-Jan-29 23:31N 47°34' W 122°22'0 0.0
2015-Jan-29 22:33N 47°34' W 122°22'0 0.0
2015-Jan-29 22:30N 47°34' W 122°22'0 0.0
2015-Jan-29 21:33N 47°34' W 122°22'0 0.0
2015-Jan-29 21:30N 47°34' W 122°22'0 0.0
2015-Jan-29 19:53N 47°34' W 122°22'0 0.0
2015-Jan-29 19:33N 47°34' W 122°22'0 0.0
2015-Jan-29 19:33N 47°34' W 122°22'0 0.0
2015-Jan-29 18:33N 47°34' W 122°22'0 0.0
2015-Jan-29 18:33N 47°34' W 122°22'0 0.0
2015-Jan-29 17:33N 47°34' W 122°22'0 0.0
2015-Jan-29 17:33N 47°34' W 122°22'0 0.0
2015-Jan-29 16:33N 47°34' W 122°22'0 0.0
2015-Jan-29 16:33N 47°34' W 122°22'0 0.0
2015-Jan-29 15:33N 47°34' W 122°22'0 0.0
2015-Jan-29 15:33N 47°34' W 122°22'0 0.0
2015-Jan-29 14:16N 47°34' W 122°22'0 0.0
2015-Jan-29 14:14N 47°34' W 122°22'0 0.0
2015-Jan-29 13:31N 47°34' W 122°22'0 0.0
2015-Jan-29 12:28N 47°34' W 122°22'0 0.0
2015-Jan-29 11:57N 47°34' W 122°22'0 0.0
2015-Jan-29 11:33N 47°34' W 122°22'0 0.0
2015-Jan-29 11:32N 47°34' W 122°22'0 0.0
2015-Jan-29 10:11N 47°34' W 122°22'0 0.0
2015-Jan-29 10:11N 47°34' W 122°22'0 0.0
2015-Jan-29 09:33N 47°34' W 122°22'0 0.0
2015-Jan-29 09:26N 47°34' W 122°22'0 0.0
2015-Jan-29 08:33N 47°34' W 122°22'0 0.0
2015-Jan-29 08:31N 47°34' W 122°22'0 0.0
2015-Jan-29 07:33N 47°34' W 122°22'0 0.0
2015-Jan-29 07:31N 47°34' W 122°22'0 0.0
2015-Jan-29 07:01N 47°34' W 122°22'0 0.0
2015-Jan-29 06:33N 47°34' W 122°22'1 1.4
2015-Jan-29 05:33N 47°36' W 122°23'0 3.0
2015-Jan-29 05:31N 47°36' W 122°23'6 6.4
2015-Jan-29 04:33N 47°41' W 122°28'0 8.0
2015-Jan-29 04:30N 47°41' W 122°28'7 7.9
2015-Jan-29 03:33N 47°49' W 122°28'0 7.3
2015-Jan-29 03:30N 47°49' W 122°28'7 7.0
2015-Jan-29 02:33N 47°55' W 122°31'0 6.7
2015-Jan-29 02:30N 47°56' W 122°31'6 5.9
2015-Jan-29 01:33N 47°60' W 122°37'3 4.9
2015-Jan-29 00:59N 48°02' W 122°39'2 4.3
2015-Jan-29 00:31N 48°04' W 122°40'4 3.5
2015-Jan-28 23:28N 48°06' W 122°44'2 0.3
2015-Jan-28 16:21N 48°06' W 122°48'0 0.0
2015-Jan-28 15:32N 48°06' W 122°48'0 0.0
2015-Jan-28 14:31N 48°06' W 122°48'4 4.2
2015-Jan-28 13:28N 48°07' W 122°41'7 8.0
2015-Jan-28 12:33N 48°01' W 122°36'1 9.3
2015-Jan-28 12:24N 47°59' W 122°35'7 8.7
2015-Jan-28 11:33N 47°54' W 122°28'0 8.7
2015-Jan-28 11:30N 47°53' W 122°28'8 8.2
2015-Jan-28 10:33N 47°46' W 122°26'0 8.3
2015-Jan-28 10:30N 47°45' W 122°26'8 8.4
2015-Jan-28 09:34N 47°37' W 122°26'010.0
2015-Jan-28 09:33N 47°37' W 122°26'4 3.8
2015-Jan-28 08:33N 47°34' W 122°22'0 0.0
2015-Jan-28 08:29N 47°34' W 122°22'0 0.0
2015-Jan-28 07:34N 47°34' W 122°22'0 0.0
2015-Jan-28 07:33N 47°34' W 122°22'0 0.0
2015-Jan-28 06:59N 47°34' W 122°22'0 0.0
2015-Jan-28 06:33N 47°34' W 122°22'0 0.0
2015-Jan-28 05:34N 47°34' W 122°22'0 0.0
2015-Jan-28 05:33N 47°34' W 122°22'0 0.0
2015-Jan-28 04:33N 47°34' W 122°22'0 0.0
2015-Jan-28 04:33N 47°34' W 122°22'0 0.0
2015-Jan-28 03:33N 47°34' W 122°22'0 0.0
2015-Jan-28 03:33N 47°34' W 122°22'2 2.0
2015-Jan-28 02:34N 47°36' W 122°23'0 8.2
2015-Jan-28 02:33N 47°36' W 122°23'7 7.0
2015-Jan-28 01:33N 47°42' W 122°28'0 6.9
2015-Jan-28 01:32N 47°42' W 122°28'7 7.4
2015-Jan-28 00:33N 47°50' W 122°29'0 7.7
2015-Jan-28 00:32N 47°50' W 122°29'6 6.5
2015-Jan-27 23:33N 47°56' W 122°33'0 5.3
2015-Jan-27 23:32N 47°56' W 122°33'6 5.7
2015-Jan-27 22:33N 48°00' W 122°38'3 5.4
2015-Jan-27 22:02N 48°03' W 122°36'3 5.3
2015-Jan-27 21:32N 48°05' W 122°37'5 4.8
2015-Jan-27 20:31N 48°09' W 122°42'5 5.3
2015-Jan-27 19:33N 48°13' W 122°47'7 6.7
2015-Jan-27 18:31N 48°20' W 122°47'6 6.6
2015-Jan-27 17:33N 48°26' W 122°45'6 5.9
2015-Jan-27 16:33N 48°32' W 122°45'5 5.2
2015-Jan-27 15:33N 48°37' W 122°45'6 5.8
2015-Jan-27 14:33N 48°43' W 122°45'7 6.7
2015-Jan-27 13:33N 48°47' W 122°53'8 7.6
2015-Jan-27 12:33N 48°51' W 123°03'8 7.7
2015-Jan-27 11:33N 48°56' W 123°12'8 7.7
2015-Jan-27 10:33N 49°01' W 123°21'7 7.4
2015-Jan-27 09:33N 49°07' W 123°26'7 7.4
2015-Jan-27 08:33N 49°15' W 123°27'8 7.1
2015-Jan-27 07:28N 49°22' W 123°26'6 6.4
2015-Jan-27 06:32N 49°28' W 123°28'3 2.2
2015-Jan-27 05:08N 49°31' W 123°29'0 0.0
2015-Jan-27 03:28N 49°31' W 123°29'0 0.0
2015-Jan-26 21:55N 49°31' W 123°29'0 0.0
2015-Jan-26 21:12N 49°31' W 123°29'0 0.0
2015-Jan-26 16:27N 49°31' W 123°29'3 1.6
2015-Jan-26 14:31N 49°28' W 123°28'7 6.6
2015-Jan-26 13:31N 49°22' W 123°26'7 6.8
2015-Jan-26 12:33N 49°15' W 123°27'8 8.1
2015-Jan-26 11:33N 49°07' W 123°23'8 8.2
2015-Jan-26 10:33N 49°01' W 123°15'5 7.6
2015-Jan-26 09:53N 48°57' W 123°10'2 7.3
2015-Jan-26 09:33N 48°56' W 123°07'2 5.8
2015-Jan-26 09:18N 48°55' W 123°05'5 6.5
2015-Jan-26 08:33N 48°52' W 122°59'8 8.1
2015-Jan-26 07:33N 48°47' W 122°50'8 8.2
2015-Jan-26 06:33N 48°41' W 122°42'9 8.6
2015-Jan-26 05:33N 48°32' W 122°45'9 9.0
2015-Jan-26 04:31N 48°23' W 122°45'9 8.2
2015-Jan-26 03:28N 48°14' W 122°48'6 6.0
2015-Jan-26 02:31N 48°09' W 122°43'4 6.4
2015-Jan-26 01:52N 48°07' W 122°39'3 8.0
2015-Jan-26 01:33N 48°04' W 122°38'6 7.6
2015-Jan-26 00:46N 47°59' W 122°34'2 7.5
2015-Jan-26 00:33N 47°57' W 122°33'1 8.0
2015-Jan-26 00:26N 47°57' W 122°32'7 8.1
2015-Jan-25 23:33N 47°50' W 122°27'0 8.2
2015-Jan-25 23:31N 47°50' W 122°27'8 8.7
2015-Jan-25 22:33N 47°42' W 122°27'0 9.2
2015-Jan-25 22:31N 47°41' W 122°27'7 7.6
2015-Jan-25 21:33N 47°35' W 122°22'0 7.5
2015-Jan-25 21:31N 47°35' W 122°22'0 0.0
2015-Jan-24 07:35N 47°34' W 122°22'0 0.0
2015-Jan-24 07:31N 47°34' W 122°22'0 0.0
2015-Jan-24 07:30N 47°34' W 122°22'0 0.1
2015-Jan-24 07:00N 47°34' W 122°22'1 2.6
2015-Jan-24 06:33N 47°36' W 122°22'4 4.4
2015-Jan-24 05:33N 47°38' W 122°27'0 5.7
2015-Jan-24 05:30N 47°39' W 122°27'5 5.3
2015-Jan-24 04:33N 47°44' W 122°27'0 5.5
2015-Jan-24 04:29N 47°44' W 122°27'5 5.1
2015-Jan-24 03:33N 47°49' W 122°28'0 5.3
2015-Jan-24 03:29N 47°49' W 122°28'5 4.9
2015-Jan-24 02:33N 47°53' W 122°29'0 4.8
2015-Jan-24 02:29N 47°54' W 122°30'6 6.5
2015-Jan-24 01:33N 47°58' W 122°36'8 7.1
2015-Jan-24 00:28N 48°05' W 122°40'5 5.6
2015-Jan-23 23:33N 48°06' W 122°47'0 0.5
2015-Jan-23 23:12N 48°06' W 122°48'0 0.0
2015-Jan-23 22:11N 48°06' W 122°48'0 0.0
2015-Jan-23 21:28N 48°06' W 122°48'0 0.0
2015-Jan-23 20:16N 48°06' W 122°48'0 0.0
2015-Jan-23 19:33N 48°06' W 122°48'0 0.0
2015-Jan-23 18:32N 48°06' W 122°48'0 0.0
2015-Jan-23 17:33N 48°06' W 122°48'0 0.0
2015-Jan-23 14:12N 48°06' W 122°48'0 0.1
2015-Jan-23 13:29N 48°06' W 122°48'5 4.9
2015-Jan-23 12:22N 48°06' W 122°39'4 4.5
2015-Jan-23 11:33N 48°03' W 122°38'6 6.1
2015-Jan-23 10:33N 47°57' W 122°33'8 7.5
2015-Jan-23 09:33N 47°51' W 122°27'9 8.8
2015-Jan-23 08:33N 47°42' W 122°27'7 7.4
2015-Jan-23 07:32N 47°36' W 122°22'1 1.1
2015-Jan-23 06:33N 47°34' W 122°22'0 0.0
2015-Jan-23 05:33N 47°34' W 122°22'0 0.0
2015-Jan-23 05:31N 47°34' W 122°22'  
Track history (hours):
 
Tides and Currents Weather Stations Pressure Air Temp Water Temp Dewpoint Dewpoint Depression Visibility Wind Speed Wind Dir Waves Ship Positions

Judi M.

Owner: MANKE TUG & BARGE CO INC, SHELTON, WA. More information available from US FCC via Universal Licensing System and Coast Guard Vessel Documentation Center.

Last reported at 2015-Feb-01 19:33 UTC. Time now 2015-Feb-01 19:43 UTC.
Position N 47°34' W 122°22'.

Length 29 m; draft 4 m.

Type: Tow > 200 m length. MMSI: 366740920.

Date/timePositionNaut miles runAvg speedWind from/ knotsBaromVisibWave heightAir tempDewpointWater temp
2015-Feb-01 19:33N 47°34' W 122°22'0 0.0
2015-Feb-01 19:33N 47°34' W 122°22'0 0.0
2015-Feb-01 18:33N 47°34' W 122°22'0 0.0
2015-Feb-01 18:33N 47°34' W 122°22'0 0.0
2015-Feb-01 17:33N 47°34' W 122°22'0 0.0
2015-Feb-01 17:33N 47°34' W 122°22'0 0.0
2015-Feb-01 16:33N 47°34' W 122°22'0 0.0
2015-Feb-01 16:32N 47°34' W 122°22'0 0.0
2015-Feb-01 14:59N 47°34' W 122°22'0 0.0
2015-Feb-01 14:27N 47°34' W 122°22'0 0.0
2015-Feb-01 13:57N 47°34' W 122°22'0 0.0
2015-Feb-01 13:26N 47°34' W 122°22'0 0.0
2015-Feb-01 13:16N 47°34' W 122°22'0 0.0
2015-Feb-01 12:31N 47°34' W 122°22'0 0.0
2015-Feb-01 12:20N 47°34' W 122°22'0 0.0
2015-Feb-01 11:33N 47°34' W 122°22'0 0.0
2015-Feb-01 11:30N 47°34' W 122°22'0 0.0
2015-Feb-01 10:33N 47°34' W 122°22'0 0.0
2015-Feb-01 10:30N 47°34' W 122°22'0 0.0
2015-Feb-01 09:33N 47°34' W 122°22'0 0.0
2015-Feb-01 09:30N 47°34' W 122°22'0 0.0
2015-Feb-01 08:33N 47°34' W 122°22'0 0.0
2015-Feb-01 08:30N 47°34' W 122°22'0 0.0
2015-Feb-01 07:33N 47°34' W 122°22'0 0.0
2015-Feb-01 07:30N 47°34' W 122°22'0 0.0
2015-Feb-01 07:04N 47°34' W 122°22'0 0.0
2015-Feb-01 06:33N 47°34' W 122°22'0 0.0
2015-Feb-01 05:33N 47°34' W 122°22'0 0.0
2015-Feb-01 05:29N 47°34' W 122°22'0 0.0
2015-Feb-01 04:33N 47°34' W 122°22'0 0.0
2015-Feb-01 04:29N 47°34' W 122°22'0 0.0
2015-Feb-01 03:33N 47°34' W 122°22'0 0.0
2015-Feb-01 03:29N 47°34' W 122°22'0 0.0
2015-Feb-01 02:33N 47°34' W 122°22'0 0.0
2015-Feb-01 02:28N 47°34' W 122°22'0 0.0
2015-Feb-01 01:33N 47°34' W 122°22'0 0.0
2015-Feb-01 01:29N 47°34' W 122°22'0 0.0
2015-Feb-01 00:33N 47°34' W 122°22'0 0.0
2015-Feb-01 00:28N 47°34' W 122°22'0 0.0
2015-Jan-31 23:33N 47°34' W 122°22'0 0.0
2015-Jan-31 23:29N 47°34' W 122°22'0 0.0
2015-Jan-31 22:33N 47°34' W 122°22'0 0.0
2015-Jan-31 22:28N 47°34' W 122°22'0 0.0
2015-Jan-31 21:34N 47°34' W 122°22'0 0.0
2015-Jan-31 21:33N 47°34' W 122°22'0 0.0
2015-Jan-31 20:33N 47°34' W 122°22'0 0.0
2015-Jan-31 20:33N 47°34' W 122°22'0 0.0
2015-Jan-31 19:33N 47°34' W 122°22'0 0.0
2015-Jan-31 18:33N 47°34' W 122°22'0 0.0
2015-Jan-31 18:33N 47°34' W 122°22'0 0.0
2015-Jan-31 17:33N 47°34' W 122°22'0 0.0
2015-Jan-31 17:33N 47°34' W 122°22'0 0.0
2015-Jan-31 16:33N 47°34' W 122°22'0 0.0
2015-Jan-31 16:33N 47°34' W 122°22'0 0.0
2015-Jan-31 15:33N 47°34' W 122°22'0 0.0
2015-Jan-31 15:33N 47°34' W 122°22'0 0.0
2015-Jan-31 14:09N 47°34' W 122°22'0 0.0
2015-Jan-31 14:06N 47°34' W 122°22'0 0.0
2015-Jan-31 13:33N 47°34' W 122°22'0 0.0
2015-Jan-31 13:31N 47°34' W 122°22'0 0.0
2015-Jan-31 12:33N 47°34' W 122°22'0 0.0
2015-Jan-31 12:31N 47°34' W 122°22'0 0.0
2015-Jan-31 11:33N 47°34' W 122°22'0 0.0
2015-Jan-31 11:31N 47°34' W 122°22'0 0.0
2015-Jan-31 10:33N 47°34' W 122°22'0 0.0
2015-Jan-31 10:25N 47°34' W 122°22'0 0.0
2015-Jan-31 09:33N 47°34' W 122°22'0 0.0
2015-Jan-31 09:30N 47°34' W 122°22'0 0.0
2015-Jan-31 08:33N 47°34' W 122°22'0 0.0
2015-Jan-31 08:30N 47°34' W 122°22'1 0.8
2015-Jan-31 07:33N 47°35' W 122°22'0 3.8
2015-Jan-31 07:29N 47°35' W 122°22'4 4.7
2015-Jan-31 06:33N 47°38' W 122°27'3 6.9
2015-Jan-31 06:08N 47°41' W 122°28'4 7.2
2015-Jan-31 05:33N 47°45' W 122°27'0 6.2
2015-Jan-31 05:33N 47°45' W 122°27'7 7.2
2015-Jan-31 04:33N 47°52' W 122°29'0 6.2
2015-Jan-31 04:32N 47°52' W 122°29'6 5.9
2015-Jan-31 03:33N 47°57' W 122°34'5 5.0
2015-Jan-31 02:33N 48°01' W 122°38'4 4.0
2015-Jan-31 01:32N 48°05' W 122°40'5 0.5
2015-Jan-30 15:22N 48°06' W 122°48'0 0.0
2015-Jan-30 14:33N 48°06' W 122°48'2 0.9
2015-Jan-30 12:20N 48°06' W 122°45'5 6.1
2015-Jan-30 11:33N 48°04' W 122°38'8 8.3
2015-Jan-30 10:33N 47°57' W 122°32'1 8.2
2015-Jan-30 10:23N 47°56' W 122°30'7 8.0
2015-Jan-30 09:34N 47°50' W 122°27'010.1
2015-Jan-30 09:33N 47°50' W 122°27'8 7.5
2015-Jan-30 08:34N 47°42' W 122°26'014.4
2015-Jan-30 08:33N 47°42' W 122°26'7 6.6
2015-Jan-30 07:33N 47°36' W 122°22'0 0.0
2015-Jan-30 07:33N 47°36' W 122°22'2 4.0
2015-Jan-30 07:03N 47°34' W 122°22'0 0.0
2015-Jan-30 06:33N 47°34' W 122°22'0 0.0
2015-Jan-30 05:33N 47°34' W 122°22'0 0.0
2015-Jan-30 05:33N 47°34' W 122°22'0 0.0
2015-Jan-30 04:33N 47°34' W 122°22'0 0.0
2015-Jan-30 04:33N 47°34' W 122°22'0 0.0
2015-Jan-30 03:33N 47°34' W 122°22'0 0.0
2015-Jan-30 03:33N 47°34' W 122°22'0 0.0
2015-Jan-30 02:09N 47°34' W 122°22'0 0.0
2015-Jan-30 02:07N 47°34' W 122°22'0 0.0
2015-Jan-30 01:27N 47°34' W 122°22'0 0.0
2015-Jan-30 01:26N 47°34' W 122°22'0 0.0
2015-Jan-30 00:33N 47°34' W 122°22'0 0.0
2015-Jan-30 00:30N 47°34' W 122°22'0 0.0
2015-Jan-29 23:33N 47°34' W 122°22'0 0.0
2015-Jan-29 23:31N 47°34' W 122°22'0 0.0
2015-Jan-29 22:33N 47°34' W 122°22'0 0.0
2015-Jan-29 22:30N 47°34' W 122°22'0 0.0
2015-Jan-29 21:33N 47°34' W 122°22'0 0.0
2015-Jan-29 21:30N 47°34' W 122°22'0 0.0
2015-Jan-29 19:53N 47°34' W 122°22'0 0.0
2015-Jan-29 19:33N 47°34' W 122°22'0 0.0
2015-Jan-29 19:33N 47°34' W 122°22'0 0.0
2015-Jan-29 18:33N 47°34' W 122°22'0 0.0
2015-Jan-29 18:33N 47°34' W 122°22'0 0.0
2015-Jan-29 17:33N 47°34' W 122°22'0 0.0
2015-Jan-29 17:33N 47°34' W 122°22'0 0.0
2015-Jan-29 16:33N 47°34' W 122°22'0 0.0
2015-Jan-29 16:33N 47°34' W 122°22'0 0.0
2015-Jan-29 15:33N 47°34' W 122°22'0 0.0
2015-Jan-29 15:33N 47°34' W 122°22'0 0.0
2015-Jan-29 14:16N 47°34' W 122°22'0 0.0
2015-Jan-29 14:14N 47°34' W 122°22'0 0.0
2015-Jan-29 13:31N 47°34' W 122°22'0 0.0
2015-Jan-29 12:28N 47°34' W 122°22'0 0.0
2015-Jan-29 11:57N 47°34' W 122°22'0 0.0
2015-Jan-29 11:33N 47°34' W 122°22'0 0.0
2015-Jan-29 11:32N 47°34' W 122°22'0 0.0
2015-Jan-29 10:11N 47°34' W 122°22'0 0.0
2015-Jan-29 10:11N 47°34' W 122°22'0 0.0
2015-Jan-29 09:33N 47°34' W 122°22'0 0.0
2015-Jan-29 09:26N 47°34' W 122°22'0 0.0
2015-Jan-29 08:33N 47°34' W 122°22'0 0.0
2015-Jan-29 08:31N 47°34' W 122°22'0 0.0
2015-Jan-29 07:33N 47°34' W 122°22'0 0.0
2015-Jan-29 07:31N 47°34' W 122°22'0 0.0
2015-Jan-29 07:01N 47°34' W 122°22'0 0.0
2015-Jan-29 06:33N 47°34' W 122°22'1 1.4
2015-Jan-29 05:33N 47°36' W 122°23'0 3.0
2015-Jan-29 05:31N 47°36' W 122°23'6 6.4
2015-Jan-29 04:33N 47°41' W 122°28'0 8.0
2015-Jan-29 04:30N 47°41' W 122°28'7 7.9
2015-Jan-29 03:33N 47°49' W 122°28'0 7.3
2015-Jan-29 03:30N 47°49' W 122°28'7 7.0
2015-Jan-29 02:33N 47°55' W 122°31'0 6.7
2015-Jan-29 02:30N 47°56' W 122°31'6 5.9
2015-Jan-29 01:33N 47°60' W 122°37'3 4.9
2015-Jan-29 00:59N 48°02' W 122°39'2 4.3
2015-Jan-29 00:31N 48°04' W 122°40'4 3.5
2015-Jan-28 23:28N 48°06' W 122°44'2 0.3
2015-Jan-28 16:21N 48°06' W 122°48'0 0.0
2015-Jan-28 15:32N 48°06' W 122°48'0 0.0
2015-Jan-28 14:31N 48°06' W 122°48'4 4.2
2015-Jan-28 13:28N 48°07' W 122°41'7 8.0
2015-Jan-28 12:33N 48°01' W 122°36'1 9.3
2015-Jan-28 12:24N 47°59' W 122°35'7 8.7
2015-Jan-28 11:33N 47°54' W 122°28'0 8.7
2015-Jan-28 11:30N 47°53' W 122°28'8 8.2
2015-Jan-28 10:33N 47°46' W 122°26'0 8.3
2015-Jan-28 10:30N 47°45' W 122°26'8 8.4
2015-Jan-28 09:34N 47°37' W 122°26'010.0
2015-Jan-28 09:33N 47°37' W 122°26'4 3.8
2015-Jan-28 08:33N 47°34' W 122°22'0 0.0
2015-Jan-28 08:29N 47°34' W 122°22'0 0.0
2015-Jan-28 07:34N 47°34' W 122°22'0 0.0
2015-Jan-28 07:33N 47°34' W 122°22'0 0.0
2015-Jan-28 06:59N 47°34' W 122°22'0 0.0
2015-Jan-28 06:33N 47°34' W 122°22'0 0.0
2015-Jan-28 05:34N 47°34' W 122°22'0 0.0
2015-Jan-28 05:33N 47°34' W 122°22'0 0.0
2015-Jan-28 04:33N 47°34' W 122°22'0 0.0
2015-Jan-28 04:33N 47°34' W 122°22'0 0.0
2015-Jan-28 03:33N 47°34' W 122°22'0 0.0
2015-Jan-28 03:33N 47°34' W 122°22'2 2.0
2015-Jan-28 02:34N 47°36' W 122°23'0 8.2
2015-Jan-28 02:33N 47°36' W 122°23'7 7.0
2015-Jan-28 01:33N 47°42' W 122°28'0 6.9
2015-Jan-28 01:32N 47°42' W 122°28'7 7.4
2015-Jan-28 00:33N 47°50' W 122°29'0 7.7
2015-Jan-28 00:32N 47°50' W 122°29'6 6.5
2015-Jan-27 23:33N 47°56' W 122°33'0 5.3
2015-Jan-27 23:32N 47°56' W 122°33'6 5.7
2015-Jan-27 22:33N 48°00' W 122°38'3 5.4
2015-Jan-27 22:02N 48°03' W 122°36'3 5.3
2015-Jan-27 21:32N 48°05' W 122°37'5 4.8
2015-Jan-27 20:31N 48°09' W 122°42'5 5.3
2015-Jan-27 19:33N 48°13' W 122°47'7 6.7
2015-Jan-27 18:31N 48°20' W 122°47'6 6.6
2015-Jan-27 17:33N 48°26' W 122°45'6 5.9
2015-Jan-27 16:33N 48°32' W 122°45'5 5.2
2015-Jan-27 15:33N 48°37' W 122°45'6 5.8
2015-Jan-27 14:33N 48°43' W 122°45'7 6.7
2015-Jan-27 13:33N 48°47' W 122°53'8 7.6
2015-Jan-27 12:33N 48°51' W 123°03'8 7.7
2015-Jan-27 11:33N 48°56' W 123°12'8 7.7
2015-Jan-27 10:33N 49°01' W 123°21'7 7.4
2015-Jan-27 09:33N 49°07' W 123°26'7 7.4
2015-Jan-27 08:33N 49°15' W 123°27'8 7.1
2015-Jan-27 07:28N 49°22' W 123°26'6 6.4
2015-Jan-27 06:32N 49°28' W 123°28'3 2.2
2015-Jan-27 05:08N 49°31' W 123°29'0 0.0
2015-Jan-27 03:28N 49°31' W 123°29'0 0.0
2015-Jan-26 21:55N 49°31' W 123°29'0 0.0
2015-Jan-26 21:12N 49°31' W 123°29'0 0.0
2015-Jan-26 16:27N 49°31' W 123°29'3 1.6
2015-Jan-26 14:31N 49°28' W 123°28'7 6.6
2015-Jan-26 13:31N 49°22' W 123°26'7 6.8
2015-Jan-26 12:33N 49°15' W 123°27'8 8.1
2015-Jan-26 11:33N 49°07' W 123°23'8 8.2
2015-Jan-26 10:33N 49°01' W 123°15'5 7.6
2015-Jan-26 09:53N 48°57' W 123°10'2 7.3
2015-Jan-26 09:33N 48°56' W 123°07'2 5.8
2015-Jan-26 09:18N 48°55' W 123°05'5 6.5
2015-Jan-26 08:33N 48°52' W 122°59'8 8.1
2015-Jan-26 07:33N 48°47' W 122°50'8 8.2
2015-Jan-26 06:33N 48°41' W 122°42'9 8.6
2015-Jan-26 05:33N 48°32' W 122°45'9 9.0
2015-Jan-26 04:31N 48°23' W 122°45'9 8.2
2015-Jan-26 03:28N 48°14' W 122°48'6 6.0
2015-Jan-26 02:31N 48°09' W 122°43'4 6.4
2015-Jan-26 01:52N 48°07' W 122°39'3 8.0
2015-Jan-26 01:33N 48°04' W 122°38'6 7.6
2015-Jan-26 00:46N 47°59' W 122°34'2 7.5
2015-Jan-26 00:33N 47°57' W 122°33'1 8.0
2015-Jan-26 00:26N 47°57' W 122°32'7 8.1
2015-Jan-25 23:33N 47°50' W 122°27'0 8.2
2015-Jan-25 23:31N 47°50' W 122°27'8 8.7
2015-Jan-25 22:33N 47°42' W 122°27'0 9.2
2015-Jan-25 22:31N 47°41' W 122°27'7 7.6
2015-Jan-25 21:33N 47°35' W 122°22'0 7.5
2015-Jan-25 21:31N 47°35' W 122°22'0 0.0
2015-Jan-24 07:35N 47°34' W 122°22'0 0.0
2015-Jan-24 07:31N 47°34' W 122°22'0 0.0
2015-Jan-24 07:30N 47°34' W 122°22'0 0.1
2015-Jan-24 07:00N 47°34' W 122°22'1 2.6
2015-Jan-24 06:33N 47°36' W 122°22'4 4.4
2015-Jan-24 05:33N 47°38' W 122°27'0 5.7
2015-Jan-24 05:30N 47°39' W 122°27'5 5.3
2015-Jan-24 04:33N 47°44' W 122°27'0 5.5
2015-Jan-24 04:29N 47°44' W 122°27'5 5.1
2015-Jan-24 03:33N 47°49' W 122°28'0 5.3
2015-Jan-24 03:29N 47°49' W 122°28'5 4.9
2015-Jan-24 02:33N 47°53' W 122°29'0 4.8
2015-Jan-24 02:29N 47°54' W 122°30'6 6.5
2015-Jan-24 01:33N 47°58' W 122°36'8 7.1
2015-Jan-24 00:28N 48°05' W 122°40'5 5.6
2015-Jan-23 23:33N 48°06' W 122°47'0 0.5
2015-Jan-23 23:12N 48°06' W 122°48'0 0.0
2015-Jan-23 22:11N 48°06' W 122°48'0 0.0
2015-Jan-23 21:28N 48°06' W 122°48'0 0.0
2015-Jan-23 20:16N 48°06' W 122°48'0 0.0
2015-Jan-23 19:33N 48°06' W 122°48'0 0.0
2015-Jan-23 18:32N 48°06' W 122°48'0 0.0
2015-Jan-23 17:33N 48°06' W 122°48'0 0.0
2015-Jan-23 14:12N 48°06' W 122°48'0 0.1
2015-Jan-23 13:29N 48°06' W 122°48'5 4.9
2015-Jan-23 12:22N 48°06' W 122°39'4 4.5
2015-Jan-23 11:33N 48°03' W 122°38'6 6.1
2015-Jan-23 10:33N 47°57' W 122°33'8 7.5
2015-Jan-23 09:33N 47°51' W 122°27'9 8.8
2015-Jan-23 08:33N 47°42' W 122°27'7 7.4
2015-Jan-23 07:32N 47°36' W 122°22'1 1.1
2015-Jan-23 06:33N 47°34' W 122°22'0 0.0
2015-Jan-23 05:33N 47°34' W 122°22'0 0.0
2015-Jan-23 05:31N 47°34' W 122°22'  

Dump ship's entire track history